sensor_id;sensor_type;location;lat;lon;timestamp;P1;durP1;ratioP1;P2;durP2;ratioP2
60588;SDS011;46421;48.610;9.334;2023-05-10T00:01:22;0.40;;;0.40;;
60588;SDS011;46421;48.610;9.334;2023-05-10T00:03:47;1.33;;;0.50;;
60588;SDS011;46421;48.610;9.334;2023-05-10T00:06:12;0.57;;;0.30;;
60588;SDS011;46421;48.610;9.334;2023-05-10T00:08:37;0.97;;;0.50;;
60588;SDS011;46421;48.610;9.334;2023-05-10T00:11:02;0.77;;;0.30;;
60588;SDS011;46421;48.610;9.334;2023-05-10T00:13:28;1.90;;;0.40;;
60588;SDS011;46421;48.610;9.334;2023-05-10T00:15:53;2.07;;;0.40;;
60588;SDS011;46421;48.610;9.334;2023-05-10T00:18:18;1.30;;;0.60;;
60588;SDS011;46421;48.610;9.334;2023-05-10T00:20:44;1.65;;;0.50;;
60588;SDS011;46421;48.610;9.334;2023-05-10T00:23:11;0.82;;;0.38;;
60588;SDS011;46421;48.610;9.334;2023-05-10T00:25:36;2.22;;;0.63;;
60588;SDS011;46421;48.610;9.334;2023-05-10T00:28:01;1.23;;;0.40;;
60588;SDS011;46421;48.610;9.334;2023-05-10T00:30:26;1.23;;;0.50;;
60588;SDS011;46421;48.610;9.334;2023-05-10T00:32:52;0.65;;;0.30;;
60588;SDS011;46421;48.610;9.334;2023-05-10T00:35:17;1.13;;;0.40;;
60588;SDS011;46421;48.610;9.334;2023-05-10T00:37:42;1.87;;;0.60;;
60588;SDS011;46421;48.610;9.334;2023-05-10T00:40:08;0.70;;;0.30;;
60588;SDS011;46421;48.610;9.334;2023-05-10T00:42:33;1.00;;;0.43;;
60588;SDS011;46421;48.610;9.334;2023-05-10T00:44:58;1.40;;;0.50;;
60588;SDS011;46421;48.610;9.334;2023-05-10T00:47:24;0.53;;;0.40;;
60588;SDS011;46421;48.610;9.334;2023-05-10T00:49:49;0.93;;;0.50;;
60588;SDS011;46421;48.610;9.334;2023-05-10T00:52:14;1.17;;;0.50;;
60588;SDS011;46421;48.610;9.334;2023-05-10T00:54:40;1.55;;;0.50;;
60588;SDS011;46421;48.610;9.334;2023-05-10T00:57:05;0.87;;;0.40;;
60588;SDS011;46421;48.610;9.334;2023-05-10T00:59:30;0.70;;;0.30;;
60588;SDS011;46421;48.610;9.334;2023-05-10T01:01:56;1.42;;;0.50;;
60588;SDS011;46421;48.610;9.334;2023-05-10T01:04:22;1.77;;;0.40;;
60588;SDS011;46421;48.610;9.334;2023-05-10T01:06:50;1.73;;;0.60;;
60588;SDS011;46421;48.610;9.334;2023-05-10T01:09:15;0.47;;;0.32;;
60588;SDS011;46421;48.610;9.334;2023-05-10T01:11:41;3.28;;;0.50;;
60588;SDS011;46421;48.610;9.334;2023-05-10T01:14:06;1.80;;;0.60;;
60588;SDS011;46421;48.610;9.334;2023-05-10T01:16:33;0.77;;;0.40;;
60588;SDS011;46421;48.610;9.334;2023-05-10T01:19:01;0.73;;;0.38;;
60588;SDS011;46421;48.610;9.334;2023-05-10T01:26:59;0.80;;;0.40;;
60588;SDS011;46421;48.610;9.334;2023-05-10T01:31:57;0.73;;;0.50;;
60588;SDS011;46421;48.610;9.334;2023-05-10T01:34:25;0.93;;;0.50;;
60588;SDS011;46421;48.610;9.334;2023-05-10T01:36:58;1.63;;;0.60;;
60588;SDS011;46421;48.610;9.334;2023-05-10T01:39:25;0.98;;;0.50;;
60588;SDS011;46421;48.610;9.334;2023-05-10T01:42:08;0.47;;;0.30;;
60588;SDS011;46421;48.610;9.334;2023-05-10T01:44:39;0.90;;;0.40;;
60588;SDS011;46421;48.610;9.334;2023-05-10T01:47:15;1.00;;;0.40;;
60588;SDS011;46421;48.610;9.334;2023-05-10T01:49:52;1.00;;;0.45;;
60588;SDS011;46421;48.610;9.334;2023-05-10T01:52:19;1.67;;;0.57;;
60588;SDS011;46421;48.610;9.334;2023-05-10T01:54:47;1.48;;;0.50;;
60588;SDS011;46421;48.610;9.334;2023-05-10T01:57:14;0.50;;;0.25;;
60588;SDS011;46421;48.610;9.334;2023-05-10T01:59:41;0.57;;;0.28;;
60588;SDS011;46421;48.610;9.334;2023-05-10T02:02:08;0.30;;;0.30;;
60588;SDS011;46421;48.610;9.334;2023-05-10T02:04:37;0.88;;;0.43;;
60588;SDS011;46421;48.610;9.334;2023-05-10T02:09:28;0.73;;;0.30;;
60588;SDS011;46421;48.610;9.334;2023-05-10T02:11:55;1.60;;;0.40;;
60588;SDS011;46421;48.610;9.334;2023-05-10T02:14:22;1.25;;;0.47;;
60588;SDS011;46421;48.610;9.334;2023-05-10T02:16:49;0.55;;;0.28;;
60588;SDS011;46421;48.610;9.334;2023-05-10T02:19:15;1.58;;;0.30;;
60588;SDS011;46421;48.610;9.334;2023-05-10T02:21:42;0.80;;;0.32;;
60588;SDS011;46421;48.610;9.334;2023-05-10T02:24:08;0.82;;;0.40;;
60588;SDS011;46421;48.610;9.334;2023-05-10T02:26:34;0.40;;;0.20;;
60588;SDS011;46421;48.610;9.334;2023-05-10T02:29:01;1.88;;;0.40;;
60588;SDS011;46421;48.610;9.334;2023-05-10T02:31:28;1.83;;;0.45;;
60588;SDS011;46421;48.610;9.334;2023-05-10T02:33:53;0.55;;;0.30;;
60588;SDS011;46421;48.610;9.334;2023-05-10T02:36:19;0.50;;;0.25;;
60588;SDS011;46421;48.610;9.334;2023-05-10T02:38:45;1.55;;;0.35;;
60588;SDS011;46421;48.610;9.334;2023-05-10T02:41:11;0.47;;;0.25;;
60588;SDS011;46421;48.610;9.334;2023-05-10T02:43:36;0.73;;;0.40;;
60588;SDS011;46421;48.610;9.334;2023-05-10T02:46:02;0.85;;;0.38;;
60588;SDS011;46421;48.610;9.334;2023-05-10T02:48:28;1.03;;;0.23;;
60588;SDS011;46421;48.610;9.334;2023-05-10T02:50:54;0.35;;;0.20;;
60588;SDS011;46421;48.610;9.334;2023-05-10T02:53:23;1.75;;;0.30;;
60588;SDS011;46421;48.610;9.334;2023-05-10T02:55:53;1.35;;;0.40;;
60588;SDS011;46421;48.610;9.334;2023-05-10T02:58:22;0.80;;;0.20;;
60588;SDS011;46421;48.610;9.334;2023-05-10T03:00:47;0.47;;;0.20;;
60588;SDS011;46421;48.610;9.334;2023-05-10T03:03:12;0.57;;;0.37;;
60588;SDS011;46421;48.610;9.334;2023-05-10T03:05:38;0.73;;;0.30;;
60588;SDS011;46421;48.610;9.334;2023-05-10T03:08:03;0.53;;;0.30;;
60588;SDS011;46421;48.610;9.334;2023-05-10T03:10:29;0.35;;;0.20;;
60588;SDS011;46421;48.610;9.334;2023-05-10T03:18:11;0.93;;;0.30;;
60588;SDS011;46421;48.610;9.334;2023-05-10T03:20:57;0.70;;;0.30;;
60588;SDS011;46421;48.610;9.334;2023-05-10T03:23:27;1.70;;;0.40;;
60588;SDS011;46421;48.610;9.334;2023-05-10T03:25:54;1.45;;;0.22;;
60588;SDS011;46421;48.610;9.334;2023-05-10T03:28:20;0.93;;;0.30;;
60588;SDS011;46421;48.610;9.334;2023-05-10T03:30:46;0.63;;;0.20;;
60588;SDS011;46421;48.610;9.334;2023-05-10T03:33:11;0.90;;;0.40;;
60588;SDS011;46421;48.610;9.334;2023-05-10T03:35:38;0.40;;;0.22;;
60588;SDS011;46421;48.610;9.334;2023-05-10T03:38:03;0.47;;;0.30;;
60588;SDS011;46421;48.610;9.334;2023-05-10T03:40:29;0.40;;;0.30;;
60588;SDS011;46421;48.610;9.334;2023-05-10T03:42:56;2.28;;;0.30;;
60588;SDS011;46421;48.610;9.334;2023-05-10T03:45:21;0.27;;;0.13;;
60588;SDS011;46421;48.610;9.334;2023-05-10T03:47:47;0.47;;;0.20;;
60588;SDS011;46421;48.610;9.334;2023-05-10T03:50:12;0.83;;;0.30;;
60588;SDS011;46421;48.610;9.334;2023-05-10T03:52:37;1.37;;;0.50;;
60588;SDS011;46421;48.610;9.334;2023-05-10T03:55:04;0.68;;;0.30;;
60588;SDS011;46421;48.610;9.334;2023-05-10T03:57:30;0.52;;;0.20;;
60588;SDS011;46421;48.610;9.334;2023-05-10T03:59:55;0.40;;;0.40;;
60588;SDS011;46421;48.610;9.334;2023-05-10T04:02:20;0.60;;;0.40;;
60588;SDS011;46421;48.610;9.334;2023-05-10T04:04:46;1.20;;;0.57;;
60588;SDS011;46421;48.610;9.334;2023-05-10T04:07:11;2.03;;;0.43;;
60588;SDS011;46421;48.610;9.334;2023-05-10T04:09:36;2.27;;;0.40;;
60588;SDS011;46421;48.610;9.334;2023-05-10T04:12:01;1.67;;;0.30;;
60588;SDS011;46421;48.610;9.334;2023-05-10T04:14:27;1.27;;;0.40;;
60588;SDS011;46421;48.610;9.334;2023-05-10T04:16:52;1.20;;;0.40;;
60588;SDS011;46421;48.610;9.334;2023-05-10T04:19:17;3.33;;;0.80;;
60588;SDS011;46421;48.610;9.334;2023-05-10T04:21:43;1.20;;;0.40;;
60588;SDS011;46421;48.610;9.334;2023-05-10T04:24:08;0.40;;;0.40;;
60588;SDS011;46421;48.610;9.334;2023-05-10T04:26:33;1.10;;;0.57;;
60588;SDS011;46421;48.610;9.334;2023-05-10T04:28:58;0.87;;;0.50;;
60588;SDS011;46421;48.610;9.334;2023-05-10T04:31:23;0.97;;;0.50;;
60588;SDS011;46421;48.610;9.334;2023-05-10T04:33:49;2.63;;;0.60;;
60588;SDS011;46421;48.610;9.334;2023-05-10T04:36:14;0.93;;;0.47;;
60588;SDS011;46421;48.610;9.334;2023-05-10T04:38:40;2.70;;;0.63;;
60588;SDS011;46421;48.610;9.334;2023-05-10T04:41:06;2.20;;;0.60;;
60588;SDS011;46421;48.610;9.334;2023-05-10T04:43:31;1.50;;;0.60;;
60588;SDS011;46421;48.610;9.334;2023-05-10T04:45:57;4.80;;;0.70;;
60588;SDS011;46421;48.610;9.334;2023-05-10T04:48:22;0.87;;;0.60;;
60588;SDS011;46421;48.610;9.334;2023-05-10T04:50:47;1.57;;;0.60;;
60588;SDS011;46421;48.610;9.334;2023-05-10T04:53:12;0.50;;;0.40;;
60588;SDS011;46421;48.610;9.334;2023-05-10T04:55:38;2.57;;;0.63;;
60588;SDS011;46421;48.610;9.334;2023-05-10T04:58:03;1.40;;;0.60;;
60588;SDS011;46421;48.610;9.334;2023-05-10T05:00:28;1.37;;;0.60;;
60588;SDS011;46421;48.610;9.334;2023-05-10T05:02:53;1.27;;;0.50;;
60588;SDS011;46421;48.610;9.334;2023-05-10T05:05:19;2.07;;;0.70;;
60588;SDS011;46421;48.610;9.334;2023-05-10T05:07:44;1.33;;;0.50;;
60588;SDS011;46421;48.610;9.334;2023-05-10T05:10:09;1.17;;;0.47;;
60588;SDS011;46421;48.610;9.334;2023-05-10T05:12:35;0.50;;;0.40;;
60588;SDS011;46421;48.610;9.334;2023-05-10T05:15:00;1.85;;;0.60;;
60588;SDS011;46421;48.610;9.334;2023-05-10T05:17:25;0.93;;;0.43;;
60588;SDS011;46421;48.610;9.334;2023-05-10T05:19:51;1.30;;;0.60;;
60588;SDS011;46421;48.610;9.334;2023-05-10T05:22:16;2.70;;;0.80;;
60588;SDS011;46421;48.610;9.334;2023-05-10T05:24:41;1.42;;;0.80;;
60588;SDS011;46421;48.610;9.334;2023-05-10T05:27:07;1.87;;;0.70;;
60588;SDS011;46421;48.610;9.334;2023-05-10T05:29:32;1.77;;;0.67;;
60588;SDS011;46421;48.610;9.334;2023-05-10T05:31:57;1.53;;;0.50;;
60588;SDS011;46421;48.610;9.334;2023-05-10T05:34:22;2.13;;;0.70;;
60588;SDS011;46421;48.610;9.334;2023-05-10T05:36:48;6.22;;;0.80;;
60588;SDS011;46421;48.610;9.334;2023-05-10T05:39:13;1.27;;;0.60;;
60588;SDS011;46421;48.610;9.334;2023-05-10T05:41:38;1.70;;;0.60;;
60588;SDS011;46421;48.610;9.334;2023-05-10T05:44:04;1.30;;;0.47;;
60588;SDS011;46421;48.610;9.334;2023-05-10T05:46:29;2.00;;;0.60;;
60588;SDS011;46421;48.610;9.334;2023-05-10T05:48:54;1.67;;;0.80;;
60588;SDS011;46421;48.610;9.334;2023-05-10T05:51:19;1.47;;;0.50;;
60588;SDS011;46421;48.610;9.334;2023-05-10T05:53:45;1.60;;;0.60;;
60588;SDS011;46421;48.610;9.334;2023-05-10T05:56:10;1.67;;;0.70;;
60588;SDS011;46421;48.610;9.334;2023-05-10T05:58:35;1.75;;;0.65;;
60588;SDS011;46421;48.610;9.334;2023-05-10T06:01:01;1.63;;;0.70;;
60588;SDS011;46421;48.610;9.334;2023-05-10T06:03:26;0.70;;;0.40;;
60588;SDS011;46421;48.610;9.334;2023-05-10T06:05:51;1.10;;;0.50;;
60588;SDS011;46421;48.610;9.334;2023-05-10T06:08:16;0.87;;;0.40;;
60588;SDS011;46421;48.610;9.334;2023-05-10T06:10:42;1.10;;;0.50;;
60588;SDS011;46421;48.610;9.334;2023-05-10T06:13:07;1.40;;;0.60;;
60588;SDS011;46421;48.610;9.334;2023-05-10T06:15:32;0.90;;;0.47;;
60588;SDS011;46421;48.610;9.334;2023-05-10T06:17:58;1.52;;;0.50;;
60588;SDS011;46421;48.610;9.334;2023-05-10T06:20:23;1.53;;;0.70;;
60588;SDS011;46421;48.610;9.334;2023-05-10T06:22:48;1.10;;;0.70;;
60588;SDS011;46421;48.610;9.334;2023-05-10T06:25:13;1.90;;;0.60;;
60588;SDS011;46421;48.610;9.334;2023-05-10T06:27:39;1.67;;;0.65;;
60588;SDS011;46421;48.610;9.334;2023-05-10T06:30:05;1.55;;;0.70;;
60588;SDS011;46421;48.610;9.334;2023-05-10T06:32:31;2.28;;;0.68;;
60588;SDS011;46421;48.610;9.334;2023-05-10T06:34:56;4.30;;;0.68;;
60588;SDS011;46421;48.610;9.334;2023-05-10T06:37:21;2.43;;;0.77;;
60588;SDS011;46421;48.610;9.334;2023-05-10T06:39:46;2.07;;;0.70;;
60588;SDS011;46421;48.610;9.334;2023-05-10T06:42:11;4.93;;;0.80;;
60588;SDS011;46421;48.610;9.334;2023-05-10T06:44:37;1.90;;;0.60;;
60588;SDS011;46421;48.610;9.334;2023-05-10T06:47:02;1.60;;;0.60;;
60588;SDS011;46421;48.610;9.334;2023-05-10T06:49:27;1.80;;;0.70;;
60588;SDS011;46421;48.610;9.334;2023-05-10T06:51:52;2.13;;;0.57;;
60588;SDS011;46421;48.610;9.334;2023-05-10T06:54:17;2.17;;;0.80;;
60588;SDS011;46421;48.610;9.334;2023-05-10T06:56:43;2.10;;;0.80;;
60588;SDS011;46421;48.610;9.334;2023-05-10T06:59:08;2.70;;;0.80;;
60588;SDS011;46421;48.610;9.334;2023-05-10T07:01:33;1.50;;;0.60;;
60588;SDS011;46421;48.610;9.334;2023-05-10T07:03:59;2.47;;;0.82;;
60588;SDS011;46421;48.610;9.334;2023-05-10T07:06:24;2.03;;;0.83;;
60588;SDS011;46421;48.610;9.334;2023-05-10T07:08:49;1.60;;;0.70;;
60588;SDS011;46421;48.610;9.334;2023-05-10T07:11:14;2.10;;;0.73;;
60588;SDS011;46421;48.610;9.334;2023-05-10T07:13:39;1.20;;;0.57;;
60588;SDS011;46421;48.610;9.334;2023-05-10T07:16:08;2.67;;;0.50;;
60588;SDS011;46421;48.610;9.334;2023-05-10T07:18:34;1.80;;;0.80;;
60588;SDS011;46421;48.610;9.334;2023-05-10T07:20:59;1.97;;;0.70;;
60588;SDS011;46421;48.610;9.334;2023-05-10T07:23:24;1.33;;;0.53;;
60588;SDS011;46421;48.610;9.334;2023-05-10T07:25:49;0.93;;;0.60;;
60588;SDS011;46421;48.610;9.334;2023-05-10T07:28:17;1.83;;;0.60;;
60588;SDS011;46421;48.610;9.334;2023-05-10T07:30:42;2.75;;;0.63;;
60588;SDS011;46421;48.610;9.334;2023-05-10T07:33:08;1.38;;;0.68;;
60588;SDS011;46421;48.610;9.334;2023-05-10T07:35:34;2.70;;;1.13;;
60588;SDS011;46421;48.610;9.334;2023-05-10T07:37:59;1.70;;;0.65;;
60588;SDS011;46421;48.610;9.334;2023-05-10T07:40:24;1.05;;;0.60;;
60588;SDS011;46421;48.610;9.334;2023-05-10T07:42:50;2.03;;;0.70;;
60588;SDS011;46421;48.610;9.334;2023-05-10T07:45:15;2.47;;;0.90;;
60588;SDS011;46421;48.610;9.334;2023-05-10T07:47:40;2.50;;;1.00;;
60588;SDS011;46421;48.610;9.334;2023-05-10T07:50:06;9.20;;;0.90;;
60588;SDS011;46421;48.610;9.334;2023-05-10T07:52:31;2.05;;;0.52;;
60588;SDS011;46421;48.610;9.334;2023-05-10T07:54:57;2.03;;;0.63;;
60588;SDS011;46421;48.610;9.334;2023-05-10T07:57:22;2.80;;;0.67;;
60588;SDS011;46421;48.610;9.334;2023-05-10T07:59:47;0.83;;;0.40;;
60588;SDS011;46421;48.610;9.334;2023-05-10T08:02:12;1.63;;;0.60;;
60588;SDS011;46421;48.610;9.334;2023-05-10T08:04:38;1.37;;;0.50;;
60588;SDS011;46421;48.610;9.334;2023-05-10T08:07:03;0.60;;;0.50;;
60588;SDS011;46421;48.610;9.334;2023-05-10T08:09:28;1.10;;;0.50;;
60588;SDS011;46421;48.610;9.334;2023-05-10T08:11:53;0.57;;;0.37;;
60588;SDS011;46421;48.610;9.334;2023-05-10T08:14:18;2.37;;;0.70;;
60588;SDS011;46421;48.610;9.334;2023-05-10T08:16:44;1.98;;;0.50;;
60588;SDS011;46421;48.610;9.334;2023-05-10T08:19:09;1.17;;;0.50;;
60588;SDS011;46421;48.610;9.334;2023-05-10T08:21:35;0.50;;;0.40;;
60588;SDS011;46421;48.610;9.334;2023-05-10T08:24:01;2.00;;;0.47;;
60588;SDS011;46421;48.610;9.334;2023-05-10T08:26:26;2.13;;;0.50;;
60588;SDS011;46421;48.610;9.334;2023-05-10T08:28:51;1.00;;;0.40;;
60588;SDS011;46421;48.610;9.334;2023-05-10T08:31:16;2.37;;;0.67;;
60588;SDS011;46421;48.610;9.334;2023-05-10T08:33:43;1.20;;;0.40;;
60588;SDS011;46421;48.610;9.334;2023-05-10T08:36:08;1.13;;;0.47;;
60588;SDS011;46421;48.610;9.334;2023-05-10T08:38:33;2.57;;;0.43;;
60588;SDS011;46421;48.610;9.334;2023-05-10T08:40:58;1.03;;;0.43;;
60588;SDS011;46421;48.610;9.334;2023-05-10T08:43:26;1.58;;;0.50;;
60588;SDS011;46421;48.610;9.334;2023-05-10T08:45:51;0.95;;;0.40;;
60588;SDS011;46421;48.610;9.334;2023-05-10T08:48:18;1.20;;;0.43;;
60588;SDS011;46421;48.610;9.334;2023-05-10T08:50:43;0.77;;;0.40;;
60588;SDS011;46421;48.610;9.334;2023-05-10T08:53:10;0.82;;;0.45;;
60588;SDS011;46421;48.610;9.334;2023-05-10T08:55:36;2.65;;;0.45;;
60588;SDS011;46421;48.610;9.334;2023-05-10T08:58:05;1.52;;;0.55;;
60588;SDS011;46421;48.610;9.334;2023-05-10T09:00:30;3.25;;;0.50;;
60588;SDS011;46421;48.610;9.334;2023-05-10T09:02:56;1.27;;;0.50;;
60588;SDS011;46421;48.610;9.334;2023-05-10T09:05:22;1.60;;;0.57;;
60588;SDS011;46421;48.610;9.334;2023-05-10T09:07:47;0.45;;;0.28;;
60588;SDS011;46421;48.610;9.334;2023-05-10T09:10:13;1.13;;;0.40;;
60588;SDS011;46421;48.610;9.334;2023-05-10T09:12:38;0.87;;;0.40;;
60588;SDS011;46421;48.610;9.334;2023-05-10T09:15:03;0.90;;;0.40;;
60588;SDS011;46421;48.610;9.334;2023-05-10T09:17:30;1.02;;;0.32;;
60588;SDS011;46421;48.610;9.334;2023-05-10T09:20:02;1.17;;;0.50;;
60588;SDS011;46421;48.610;9.334;2023-05-10T09:22:27;1.20;;;0.40;;
60588;SDS011;46421;48.610;9.334;2023-05-10T09:25:09;1.40;;;0.70;;
60588;SDS011;46421;48.610;9.334;2023-05-10T09:27:36;0.65;;;0.35;;
60588;SDS011;46421;48.610;9.334;2023-05-10T09:30:02;2.20;;;0.50;;
60588;SDS011;46421;48.610;9.334;2023-05-10T09:35:12;0.75;;;0.40;;
60588;SDS011;46421;48.610;9.334;2023-05-10T09:37:40;0.52;;;0.30;;
60588;SDS011;46421;48.610;9.334;2023-05-10T09:40:12;0.38;;;0.30;;
60588;SDS011;46421;48.610;9.334;2023-05-10T09:42:37;2.67;;;0.43;;
60588;SDS011;46421;48.610;9.334;2023-05-10T09:45:03;3.93;;;0.90;;
60588;SDS011;46421;48.610;9.334;2023-05-10T09:47:29;0.40;;;0.20;;
60588;SDS011;46421;48.610;9.334;2023-05-10T09:49:57;1.05;;;0.38;;
60588;SDS011;46421;48.610;9.334;2023-05-10T09:52:27;2.10;;;0.40;;
60588;SDS011;46421;48.610;9.334;2023-05-10T09:54:53;0.77;;;0.47;;
60588;SDS011;46421;48.610;9.334;2023-05-10T09:57:22;1.05;;;0.40;;
60588;SDS011;46421;48.610;9.334;2023-05-10T09:59:48;0.70;;;0.38;;
60588;SDS011;46421;48.610;9.334;2023-05-10T10:02:13;1.10;;;0.30;;
60588;SDS011;46421;48.610;9.334;2023-05-10T10:04:39;0.40;;;0.22;;
60588;SDS011;46421;48.610;9.334;2023-05-10T10:07:04;0.40;;;0.40;;
60588;SDS011;46421;48.610;9.334;2023-05-10T10:09:30;0.55;;;0.30;;
60588;SDS011;46421;48.610;9.334;2023-05-10T10:11:55;0.47;;;0.22;;
60588;SDS011;46421;48.610;9.334;2023-05-10T10:14:22;0.52;;;0.32;;
60588;SDS011;46421;48.610;9.334;2023-05-10T10:16:48;1.35;;;0.40;;
60588;SDS011;46421;48.610;9.334;2023-05-10T10:19:14;0.65;;;0.30;;
60588;SDS011;46421;48.610;9.334;2023-05-10T10:21:39;0.45;;;0.30;;
60588;SDS011;46421;48.610;9.334;2023-05-10T10:24:05;0.30;;;0.30;;
60588;SDS011;46421;48.610;9.334;2023-05-10T10:26:33;0.25;;;0.20;;
60588;SDS011;46421;48.610;9.334;2023-05-10T10:29:04;0.50;;;0.30;;
60588;SDS011;46421;48.610;9.334;2023-05-10T10:31:47;0.57;;;0.30;;
60588;SDS011;46421;48.610;9.334;2023-05-10T10:34:33;2.83;;;0.40;;
60588;SDS011;46421;48.610;9.334;2023-05-10T10:36:59;0.73;;;0.20;;
60588;SDS011;46421;48.610;9.334;2023-05-10T10:39:28;0.90;;;0.35;;
60588;SDS011;46421;48.610;9.334;2023-05-10T10:41:54;0.85;;;0.40;;
60588;SDS011;46421;48.610;9.334;2023-05-10T10:49:37;1.23;;;0.47;;
60588;SDS011;46421;48.610;9.334;2023-05-10T10:54:50;0.45;;;0.20;;
60588;SDS011;46421;48.610;9.334;2023-05-10T10:57:17;0.70;;;0.30;;
60588;SDS011;46421;48.610;9.334;2023-05-10T10:59:43;1.02;;;0.20;;
60588;SDS011;46421;48.610;9.334;2023-05-10T11:02:32;2.60;;;0.43;;
60588;SDS011;46421;48.610;9.334;2023-05-10T11:04:56;0.85;;;0.30;;
60588;SDS011;46421;48.610;9.334;2023-05-10T11:07:21;1.30;;;0.43;;
60588;SDS011;46421;48.610;9.334;2023-05-10T11:09:47;0.40;;;0.30;;
60588;SDS011;46421;48.610;9.334;2023-05-10T11:12:13;0.93;;;0.33;;
60588;SDS011;46421;48.610;9.334;2023-05-10T11:14:38;1.43;;;0.47;;
60588;SDS011;46421;48.610;9.334;2023-05-10T11:20:13;1.83;;;0.40;;
60588;SDS011;46421;48.610;9.334;2023-05-10T11:22:51;1.70;;;0.47;;
60588;SDS011;46421;48.610;9.334;2023-05-10T11:25:17;1.33;;;0.50;;
60588;SDS011;46421;48.610;9.334;2023-05-10T11:27:42;1.02;;;0.40;;
60588;SDS011;46421;48.610;9.334;2023-05-10T11:30:09;3.17;;;0.60;;
60588;SDS011;46421;48.610;9.334;2023-05-10T11:32:36;2.25;;;0.52;;
60588;SDS011;46421;48.610;9.334;2023-05-10T11:35:06;1.65;;;0.50;;
60588;SDS011;46421;48.610;9.334;2023-05-10T11:37:31;1.58;;;0.50;;
60588;SDS011;46421;48.610;9.334;2023-05-10T11:39:59;2.10;;;0.47;;
60588;SDS011;46421;48.610;9.334;2023-05-10T11:42:24;0.95;;;0.28;;
60588;SDS011;46421;48.610;9.334;2023-05-10T11:44:49;1.80;;;0.50;;
60588;SDS011;46421;48.610;9.334;2023-05-10T11:47:15;1.67;;;0.50;;
60588;SDS011;46421;48.610;9.334;2023-05-10T11:49:43;2.53;;;0.57;;
60588;SDS011;46421;48.610;9.334;2023-05-10T11:52:08;0.60;;;0.40;;
60588;SDS011;46421;48.610;9.334;2023-05-10T11:54:33;1.33;;;0.60;;
60588;SDS011;46421;48.610;9.334;2023-05-10T11:57:02;1.23;;;0.35;;
60588;SDS011;46421;48.610;9.334;2023-05-10T11:59:28;1.77;;;0.50;;
60588;SDS011;46421;48.610;9.334;2023-05-10T12:01:53;1.37;;;0.50;;
60588;SDS011;46421;48.610;9.334;2023-05-10T12:04:18;1.23;;;0.40;;
60588;SDS011;46421;48.610;9.334;2023-05-10T12:06:43;1.10;;;0.32;;
60588;SDS011;46421;48.610;9.334;2023-05-10T12:09:10;0.55;;;0.40;;
60588;SDS011;46421;48.610;9.334;2023-05-10T12:11:39;2.25;;;0.70;;
60588;SDS011;46421;48.610;9.334;2023-05-10T12:14:05;1.33;;;0.50;;
60588;SDS011;46421;48.610;9.334;2023-05-10T12:16:30;1.30;;;0.50;;
60588;SDS011;46421;48.610;9.334;2023-05-10T12:19:00;1.38;;;0.65;;
60588;SDS011;46421;48.610;9.334;2023-05-10T12:21:25;1.23;;;0.40;;
60588;SDS011;46421;48.610;9.334;2023-05-10T12:23:52;0.85;;;0.38;;
60588;SDS011;46421;48.610;9.334;2023-05-10T12:31:09;1.67;;;0.47;;
60588;SDS011;46421;48.610;9.334;2023-05-10T12:33:46;2.20;;;0.60;;
60588;SDS011;46421;48.610;9.334;2023-05-10T12:36:14;2.33;;;0.60;;
60588;SDS011;46421;48.610;9.334;2023-05-10T12:38:40;1.75;;;0.60;;
60588;SDS011;46421;48.610;9.334;2023-05-10T12:41:08;0.85;;;0.50;;
60588;SDS011;46421;48.610;9.334;2023-05-10T12:43:34;2.67;;;0.50;;
60588;SDS011;46421;48.610;9.334;2023-05-10T12:48:31;2.15;;;0.70;;
60588;SDS011;46421;48.610;9.334;2023-05-10T12:50:58;1.25;;;0.52;;
60588;SDS011;46421;48.610;9.334;2023-05-10T12:53:23;1.50;;;0.50;;
60588;SDS011;46421;48.610;9.334;2023-05-10T12:55:49;1.97;;;0.60;;
60588;SDS011;46421;48.610;9.334;2023-05-10T12:58:14;2.53;;;0.77;;
60588;SDS011;46421;48.610;9.334;2023-05-10T13:00:39;1.37;;;0.50;;
60588;SDS011;46421;48.610;9.334;2023-05-10T13:03:05;2.13;;;0.60;;
60588;SDS011;46421;48.610;9.334;2023-05-10T13:05:31;1.48;;;0.50;;
60588;SDS011;46421;48.610;9.334;2023-05-10T13:07:56;1.58;;;0.50;;
60588;SDS011;46421;48.610;9.334;2023-05-10T13:10:22;3.50;;;0.70;;
60588;SDS011;46421;48.610;9.334;2023-05-10T13:15:13;1.87;;;0.80;;
60588;SDS011;46421;48.610;9.334;2023-05-10T13:17:39;1.13;;;0.53;;
60588;SDS011;46421;48.610;9.334;2023-05-10T13:22:30;2.20;;;0.60;;
60588;SDS011;46421;48.610;9.334;2023-05-10T13:24:56;2.27;;;0.80;;
60588;SDS011;46421;48.610;9.334;2023-05-10T13:27:21;1.63;;;0.73;;
60588;SDS011;46421;48.610;9.334;2023-05-10T13:29:46;3.00;;;0.73;;
60588;SDS011;46421;48.610;9.334;2023-05-10T13:32:11;3.40;;;0.60;;
60588;SDS011;46421;48.610;9.334;2023-05-10T13:34:36;2.00;;;0.60;;
60588;SDS011;46421;48.610;9.334;2023-05-10T13:37:01;1.87;;;0.63;;
60588;SDS011;46421;48.610;9.334;2023-05-10T13:39:27;2.40;;;0.70;;
60588;SDS011;46421;48.610;9.334;2023-05-10T13:41:52;2.50;;;0.70;;
60588;SDS011;46421;48.610;9.334;2023-05-10T13:44:18;2.10;;;0.80;;
60588;SDS011;46421;48.610;9.334;2023-05-10T13:46:43;1.13;;;0.53;;
60588;SDS011;46421;48.610;9.334;2023-05-10T13:49:08;1.50;;;0.50;;
60588;SDS011;46421;48.610;9.334;2023-05-10T13:51:34;3.17;;;0.82;;
60588;SDS011;46421;48.610;9.334;2023-05-10T13:54:00;2.15;;;0.50;;
60588;SDS011;46421;48.610;9.334;2023-05-10T13:56:26;1.85;;;0.70;;
60588;SDS011;46421;48.610;9.334;2023-05-10T13:58:51;1.58;;;0.65;;
60588;SDS011;46421;48.610;9.334;2023-05-10T14:01:17;1.63;;;0.57;;
60588;SDS011;46421;48.610;9.334;2023-05-10T14:03:42;1.93;;;0.57;;
60588;SDS011;46421;48.610;9.334;2023-05-10T14:06:07;1.17;;;0.50;;
60588;SDS011;46421;48.610;9.334;2023-05-10T14:08:33;3.17;;;0.63;;
60588;SDS011;46421;48.610;9.334;2023-05-10T14:10:58;3.03;;;0.80;;
60588;SDS011;46421;48.610;9.334;2023-05-10T14:13:24;3.40;;;0.90;;
60588;SDS011;46421;48.610;9.334;2023-05-10T14:15:49;1.83;;;0.70;;
60588;SDS011;46421;48.610;9.334;2023-05-10T14:18:15;2.47;;;0.60;;
60588;SDS011;46421;48.610;9.334;2023-05-10T14:20:40;1.93;;;0.70;;
60588;SDS011;46421;48.610;9.334;2023-05-10T14:23:05;0.80;;;0.40;;
60588;SDS011;46421;48.610;9.334;2023-05-10T14:25:30;2.00;;;0.80;;
60588;SDS011;46421;48.610;9.334;2023-05-10T14:27:56;1.03;;;0.60;;
60588;SDS011;46421;48.610;9.334;2023-05-10T14:30:21;3.25;;;0.95;;
60588;SDS011;46421;48.610;9.334;2023-05-10T14:32:46;2.07;;;0.70;;
60588;SDS011;46421;48.610;9.334;2023-05-10T14:35:12;1.43;;;0.83;;
60588;SDS011;46421;48.610;9.334;2023-05-10T14:37:37;1.40;;;0.57;;
60588;SDS011;46421;48.610;9.334;2023-05-10T14:40:03;1.30;;;0.60;;
60588;SDS011;46421;48.610;9.334;2023-05-10T14:42:29;1.38;;;0.65;;
60588;SDS011;46421;48.610;9.334;2023-05-10T14:44:54;1.92;;;0.70;;
60588;SDS011;46421;48.610;9.334;2023-05-10T14:47:20;2.10;;;0.90;;
60588;SDS011;46421;48.610;9.334;2023-05-10T14:49:45;1.15;;;0.50;;
60588;SDS011;46421;48.610;9.334;2023-05-10T14:52:10;2.73;;;0.70;;
60588;SDS011;46421;48.610;9.334;2023-05-10T14:54:37;2.60;;;0.77;;
60588;SDS011;46421;48.610;9.334;2023-05-10T14:57:02;2.25;;;0.95;;
60588;SDS011;46421;48.610;9.334;2023-05-10T14:59:28;1.63;;;0.80;;
60588;SDS011;46421;48.610;9.334;2023-05-10T15:01:53;2.57;;;0.80;;
60588;SDS011;46421;48.610;9.334;2023-05-10T15:04:18;1.67;;;0.90;;
60588;SDS011;46421;48.610;9.334;2023-05-10T15:06:43;1.20;;;0.60;;
60588;SDS011;46421;48.610;9.334;2023-05-10T15:09:09;2.05;;;0.68;;
60588;SDS011;46421;48.610;9.334;2023-05-10T15:11:34;2.07;;;0.63;;
60588;SDS011;46421;48.610;9.334;2023-05-10T15:13:59;1.10;;;0.60;;
60588;SDS011;46421;48.610;9.334;2023-05-10T15:16:25;3.63;;;0.70;;
60588;SDS011;46421;48.610;9.334;2023-05-10T15:18:50;1.30;;;0.70;;
60588;SDS011;46421;48.610;9.334;2023-05-10T15:21:15;2.90;;;0.70;;
60588;SDS011;46421;48.610;9.334;2023-05-10T15:23:40;1.30;;;0.80;;